Rain From: 21-07-2018 02:00 Until: 16:00 warning for: Rain Level: Yellow info button
suomi:
Sadevaroitus: Aamuyöstä alkaen voi sataa rankasti, yli 20 mm tunnissa.

svenska:
Nederbördsvarning: Från och med efternatten kan det förekomma synnerligen riklig nederbörd, mer än 20 mm i timmen.

english:
Heavy rain warning: From the early morning on heavy rain of more than 20 mm per hour can be expected. 

Forest fire From: 20-07-2018 23:00 Until: 21-07-2018 11:00 warning for: Forest fire Level: Yellow info button
suomi:
Metsäpalovaroitus on voimassa.

svenska:
Varning för skogsbrand gäller.

english:
A forest fire warning is in force. 


Thunder radar more information blitzortung!


Löydät sääaseman tiedot myös:

European Weather Network

Finland Weather Exchange

Weather Underground

AWEKAS



Weather Underground säähistoriasivu

Päivittäin yhteenveto Maaliskuu 9, 2017 Yksiköt:  Englantilaiset    Metriset   Molemmat
« Edellinen Päivä
Seuraava Päivä »
Päivittäin Viikoittain Kuukausittain Vuosittain Mukautettu
  Korkea: Matala: Keskiarvo:
Lämpötila: TemperatureC °F -2.3 °F -0.1 °F
Kastepiste: DewpointC °F -3.7 °F -1.3 °F
Kosteus: Humidity % 86 % 91 %
Tuulen nopeus: WindSpeedKMH mph 1.6 mph 6 mph
Tuulenpuuska: WindSpeedGustKMH mph - -
Tuuli:- - South
Ilmanpaine: PressurehPa in 1008.0 in -
Sade: 0.0 in    
Historical Graphs
 
 
Taulukkotiedot Maaliskuu 9, 2017
Aika Lämpötila Kastepiste Ilmanpaine Tuuli Tuulen nopeus Tuulenpuuska Kosteus Sademäärä (tunneittain)
TemperatureC °F DewpointC °F PressurehPa in Calm     Humidity % HourlyPrecipMM in
00:00 -1.7 °F -2.7 °F 1010.7 in SSW 4.8 mph 8.0 mph 93 % 0.0 in
00:15 -1.8 °F -2.8 °F 1010.7 in SSW 3.2 mph 12.9 mph 93 % 0.0 in
00:30 -1.8 °F -2.8 °F 1010.7 in South 3.2 mph 11.3 mph 93 % 0.0 in
00:45 -1.8 °F -2.7 °F 1010.7 in SSW 1.6 mph 8.0 mph 94 % 0.0 in
01:00 -1.8 °F -2.8 °F 1010.7 in SSW 4.8 mph 14.5 mph 93 % 0.0 in
01:15 -1.7 °F -2.6 °F 1010.7 in SSW 4.8 mph 9.7 mph 94 % 0.0 in
01:30 -1.7 °F -2.6 °F 1010.7 in SSW 4.8 mph 14.5 mph 93 % 0.0 in
01:45 -1.7 °F -2.7 °F 1010.7 in South 3.2 mph 16.1 mph 93 % 0.0 in
02:00 -1.6 °F -2.7 °F 1010.7 in SSW 6.4 mph 14.5 mph 92 % 0.0 in
02:15 -1.5 °F -2.6 °F 1010.7 in SSW 6.4 mph 17.7 mph 92 % 0.0 in
02:30 -1.6 °F -2.8 °F 1011.1 in SSW 8.0 mph 20.9 mph 91 % 0.0 in
02:45 -1.6 °F -2.8 °F 1010.7 in SSW 6.4 mph 16.1 mph 91 % 0.0 in
03:00 -1.7 °F -2.9 °F 1010.7 in SSW 8.0 mph 14.5 mph 91 % 0.0 in
03:15 -1.7 °F -3.1 °F 1010.7 in SSW 8.0 mph 16.1 mph 90 % 0.0 in
03:30 -1.8 °F -3.1 °F 1010.7 in SSW 9.7 mph 19.3 mph 91 % 0.0 in
03:45 -1.8 °F -3.2 °F 1010.7 in SSW 9.7 mph 17.7 mph 90 % 0.0 in
04:00 -1.8 °F -3.3 °F 1010.4 in SSW 8.0 mph 22.5 mph 90 % 0.0 in
04:15 -1.9 °F -3.3 °F 1010.4 in SSW 8.0 mph 17.7 mph 90 % 0.0 in
04:30 -1.8 °F -3.3 °F 1010.7 in SSW 8.0 mph 17.7 mph 90 % 0.0 in
04:45 -1.8 °F -3.2 °F 1010.4 in SSW 8.0 mph 24.1 mph 90 % 0.0 in
05:00 -1.7 °F -3.1 °F 1010.4 in SSW 8.0 mph 16.1 mph 90 % 0.0 in
05:15 -1.7 °F -3.1 °F 1010.7 in SSW 9.7 mph 24.1 mph 90 % 0.0 in
05:30 -1.7 °F -3.1 °F 1010.4 in SSW 8.0 mph 17.7 mph 90 % 0.0 in
05:45 -1.7 °F -3.1 °F 1010.4 in SSW 8.0 mph 17.7 mph 90 % 0.0 in
06:00 -1.7 °F -3.2 °F 1010.7 in SSW 8.0 mph 16.1 mph 89 % 0.0 in
06:15 -1.7 °F -3.1 °F 1010.7 in SSW 6.4 mph 19.3 mph 90 % 0.0 in
06:30 -1.9 °F -3.3 °F 1010.7 in SSW 6.4 mph 14.5 mph 90 % 0.0 in
06:45 -2.1 °F -3.5 °F 1010.7 in SSW 6.4 mph 16.1 mph 90 % 0.0 in
07:00 -2.3 °F -3.7 °F 1010.7 in South 6.4 mph 14.5 mph 90 % 0.0 in
07:15 -2.3 °F -3.7 °F 1010.7 in SSW 4.8 mph 17.7 mph 90 % 0.0 in
07:30 -2.1 °F -3.5 °F 1010.7 in South 6.4 mph 20.9 mph 90 % 0.0 in
07:45 -2.1 °F -3.5 °F 1010.7 in SSW 6.4 mph 11.3 mph 90 % 0.0 in
08:00 -2.0 °F -3.6 °F 1010.7 in South 4.8 mph 16.1 mph 89 % 0.0 in
08:15 -1.9 °F -3.5 °F 1010.7 in South 4.8 mph 17.7 mph 89 % 0.0 in
08:30 -1.8 °F -3.4 °F 1010.7 in SSW 6.4 mph 14.5 mph 89 % 0.0 in
08:45 -1.7 °F -3.4 °F 1011.1 in SSW 9.7 mph 24.1 mph 88 % 0.0 in
09:00 -1.6 °F -3.3 °F 1011.1 in SSW 8.0 mph 17.7 mph 88 % 0.0 in
09:15 -1.4 °F -3.1 °F 1011.1 in SSW 8.0 mph 19.3 mph 88 % 0.0 in
09:30 -1.2 °F -3.1 °F 1011.1 in South 8.0 mph 17.7 mph 87 % 0.0 in
09:45 -0.8 °F -2.7 °F 1011.1 in SSW 8.0 mph 19.3 mph 87 % 0.0 in
10:00 -0.6 °F -2.5 °F 1010.7 in SSW 6.4 mph 16.1 mph 87 % 0.0 in
10:15 -0.4 °F -2.3 °F 1010.7 in SSW 9.7 mph 20.9 mph 87 % 0.0 in
10:30 -0.3 °F -2.2 °F 1010.7 in SSW 8.0 mph 20.9 mph 87 % 0.0 in
10:45 -0.2 °F -2.1 °F 1010.7 in SSW 8.0 mph 20.9 mph 87 % 0.0 in
11:00 -0.1 °F -2.0 °F 1010.7 in SSW 11.3 mph 29.0 mph 87 % 0.0 in
11:15 0.0 °F -1.8 °F 1010.7 in SSW 8.0 mph 22.5 mph 88 % 0.0 in
11:30 0.1 °F -1.8 °F 1010.7 in South 8.0 mph 22.5 mph 87 % 0.0 in
11:45 0.2 °F -1.7 °F 1010.7 in South 9.7 mph 22.5 mph 87 % 0.0 in
12:00 0.4 °F -1.5 °F 1010.4 in South 8.0 mph 19.3 mph 87 % 0.0 in
12:15 0.6 °F -1.4 °F 1010.4 in South 8.0 mph 20.9 mph 87 % 0.0 in
12:30 0.7 °F -1.4 °F 1010.4 in South 8.0 mph 19.3 mph 86 % 0.0 in
12:45 0.8 °F -1.3 °F 1010.0 in South 6.4 mph 24.1 mph 86 % 0.0 in
13:00 0.7 °F -1.2 °F 1010.0 in South 6.4 mph 19.3 mph 87 % 0.0 in
13:15 0.7 °F -1.1 °F 1010.0 in South 4.8 mph 14.5 mph 88 % 0.0 in
13:30 0.7 °F -0.9 °F 1009.7 in South 6.4 mph 16.1 mph 89 % 0.0 in
13:45 0.8 °F -0.7 °F 1009.7 in South 8.0 mph 20.9 mph 90 % 0.0 in
14:00 0.8 °F -0.5 °F 1009.7 in South 4.8 mph 14.5 mph 91 % 0.0 in
14:15 0.9 °F -0.4 °F 1009.4 in South 6.4 mph 19.3 mph 91 % 0.0 in
14:30 1.1 °F -0.1 °F 1009.4 in South 6.4 mph 17.7 mph 92 % 0.0 in
14:45 1.2 °F 0.0 °F 1009.4 in South 4.8 mph 22.5 mph 92 % 0.0 in
15:00 1.3 °F 0.1 °F 1009.0 in South 6.4 mph 20.9 mph 92 % 0.0 in
15:15 1.3 °F 0.2 °F 1009.0 in South 6.4 mph 14.5 mph 92 % 0.0 in
15:30 1.4 °F 0.3 °F 1009.0 in South 6.4 mph 16.1 mph 92 % 0.0 in
15:45 1.6 °F 0.4 °F 1008.7 in South 6.4 mph 19.3 mph 92 % 0.0 in
16:00 1.7 °F 0.5 °F 1008.7 in South 4.8 mph 14.5 mph 92 % 0.0 in
16:15 1.7 °F 0.5 °F 1008.7 in South 6.4 mph 17.7 mph 92 % 0.0 in
16:30 1.7 °F 0.5 °F 1008.4 in South 4.8 mph 17.7 mph 92 % 0.0 in
16:45 1.7 °F 0.5 °F 1008.4 in South 3.2 mph 9.7 mph 92 % 0.0 in
17:00 1.7 °F 0.6 °F 1008.0 in South 6.4 mph 16.1 mph 92 % 0.0 in
17:15 1.7 °F 0.6 °F 1008.0 in South 6.4 mph 12.9 mph 92 % 0.0 in
17:30 1.7 °F 0.5 °F 1008.0 in South 6.4 mph 16.1 mph 92 % 0.0 in
17:45 1.6 °F 0.5 °F 1008.0 in SSW 6.4 mph 22.5 mph 93 % 0.0 in
18:00 1.6 °F 0.5 °F 1008.0 in SSW 4.8 mph 14.5 mph 93 % 0.0 in
18:15 1.5 °F 0.6 °F 1008.0 in South 4.8 mph 14.5 mph 94 % 0.0 in
18:30 1.4 °F 0.6 °F 1008.0 in South 3.2 mph 9.7 mph 94 % 0.0 in
18:45 1.4 °F 0.7 °F 1008.4 in SSW 4.8 mph 16.1 mph 95 % 0.0 in
19:00 1.4 °F 0.7 °F 1008.0 in SSW 4.8 mph 14.5 mph 95 % 0.0 in
19:15 1.4 °F 0.7 °F 1008.0 in South 4.8 mph 12.9 mph 95 % 0.0 in
19:30 1.4 °F 0.7 °F 1008.4 in SSW 4.8 mph 11.3 mph 95 % 0.0 in
19:45 1.4 °F 0.9 °F 1008.0 in SSW 4.8 mph 17.7 mph 96 % 0.0 in
20:00 1.4 °F 0.8 °F 1008.0 in SSW 4.8 mph 12.9 mph 96 % 0.0 in
20:15 1.4 °F 0.8 °F 1008.0 in South 4.8 mph 11.3 mph 96 % 0.0 in
20:30 1.4 °F 0.8 °F 1008.4 in South 4.8 mph 17.7 mph 96 % 0.0 in
20:45 1.4 °F 0.9 °F 1008.4 in SSW 4.8 mph 14.5 mph 96 % 0.0 in
21:00 1.4 °F 0.9 °F 1008.0 in South 4.8 mph 17.7 mph 96 % 0.0 in
21:15 1.4 °F 0.9 °F 1008.0 in South 4.8 mph 11.3 mph 96 % 0.0 in
21:30 1.4 °F 0.9 °F 1008.0 in SSW 4.8 mph 16.1 mph 96 % 0.0 in
21:45 1.5 °F 0.9 °F 1008.4 in South 6.4 mph 17.7 mph 96 % 0.0 in
22:00 1.5 °F 0.9 °F 1008.4 in South 6.4 mph 19.3 mph 96 % 0.0 in
22:15 1.5 °F 0.9 °F 1008.4 in South 3.2 mph 9.7 mph 96 % 0.0 in
22:30 1.4 °F 0.9 °F 1008.4 in South 1.6 mph 8.0 mph 96 % 0.0 in
22:45 1.4 °F 0.8 °F 1008.0 in South 1.6 mph 9.7 mph 96 % 0.0 in
23:00 1.3 °F 0.8 °F 1008.4 in South 3.2 mph 9.7 mph 96 % 0.0 in
23:15 1.4 °F 0.8 °F 1008.0 in SSE 3.2 mph 11.3 mph 96 % 0.0 in
23:30 1.3 °F 0.8 °F 1008.0 in SSW 3.2 mph 9.7 mph 96 % 0.0 in
23:45 1.3 °F 0.8 °F 1008.0 in SSE 1.6 mph 12.9 mph 96 % 0.0 in
Esan sääasema
Terveisin Weather Underground - 2.75 mb

Alkuperäinen skripti  Jim McMurry - jmcmurry@mwt.net Sovitettu myös templatelle  Wim van der Kuil - Leuven-Template.eu

Laitteet joita käytämme:

Sääasema
Davis VP2

Sääasemaohjelma
Cumulus

Sääaseman tietokone
Asus EeePC

Palveluntarjoaja
Suncomet

Davis VP2

Cumulus

Asus EeePC

Suncomet